createdAt,value
2018-06-12T00:00:49.895Z,17.40
2018-06-12T00:03:19.081Z,15.37
2018-06-12T00:05:48.639Z,15.47
2018-06-12T00:08:17.841Z,16.03
2018-06-12T00:10:47.094Z,16.00
2018-06-12T00:13:16.294Z,15.80
2018-06-12T00:15:45.654Z,14.50
2018-06-12T00:18:15.178Z,15.33
2018-06-12T00:20:44.347Z,15.70
2018-06-12T00:23:13.624Z,15.57
2018-06-12T00:25:43.497Z,18.30
2018-06-12T00:28:12.686Z,16.10
2018-06-12T00:30:42.046Z,15.20
2018-06-12T00:33:11.710Z,15.70
2018-06-12T00:35:40.986Z,15.63
2018-06-12T00:38:10.154Z,16.37
2018-06-12T00:40:39.314Z,16.57
2018-06-12T00:43:08.491Z,17.00
2018-06-12T00:45:37.680Z,16.50
2018-06-12T00:48:07.629Z,16.03
2018-06-12T00:50:37.130Z,16.63
2018-06-12T00:53:06.626Z,17.60
2018-06-12T00:55:36.190Z,17.90
2018-06-12T00:58:05.719Z,17.50
2018-06-12T01:00:34.871Z,18.27
2018-06-12T01:03:04.279Z,17.40
2018-06-12T01:05:33.463Z,17.23
2018-06-12T01:08:02.675Z,17.73
2018-06-12T01:10:31.880Z,17.77
2018-06-12T01:13:01.098Z,17.43
2018-06-12T01:15:30.282Z,19.37
2018-06-12T01:17:59.903Z,17.63
2018-06-12T01:20:29.246Z,19.17
2018-06-12T01:22:58.658Z,18.37
2018-06-12T01:25:28.283Z,18.20
2018-06-12T01:27:57.695Z,17.50
2018-06-12T01:30:27.148Z,18.63
2018-06-12T01:32:56.319Z,18.73
2018-06-12T01:35:25.519Z,18.30
2018-06-12T01:37:54.683Z,18.43
2018-06-12T01:40:24.249Z,18.60
2018-06-12T01:42:53.662Z,19.33
2018-06-12T01:45:22.867Z,19.17
2018-06-12T01:47:52.068Z,18.57
2018-06-12T01:50:21.279Z,17.63
2018-06-12T01:52:50.478Z,19.63
2018-06-12T01:55:19.804Z,19.97
2018-06-12T01:57:48.994Z,20.10
2018-06-12T02:00:18.247Z,20.63
2018-06-12T02:02:47.436Z,21.63
2018-06-12T02:05:16.654Z,20.30
2018-06-12T02:07:45.831Z,21.10
2018-06-12T02:10:15.643Z,20.50
2018-06-12T02:12:44.808Z,20.33
2018-06-12T02:15:14.146Z,20.60
2018-06-12T02:17:43.334Z,21.53
2018-06-12T02:20:12.551Z,20.73
2018-06-12T02:22:41.762Z,20.47
2018-06-12T02:25:11.329Z,19.87
2018-06-12T02:27:40.498Z,19.87
2018-06-12T02:30:10.130Z,22.27
2018-06-12T02:32:39.303Z,23.03
2018-06-12T02:35:08.767Z,22.40
2018-06-12T02:37:37.931Z,21.57
2018-06-12T02:40:07.134Z,22.97
2018-06-12T02:42:36.308Z,25.20
2018-06-12T02:45:06.452Z,24.43
2018-06-12T02:47:35.630Z,27.80
2018-06-12T02:50:05.063Z,26.57
2018-06-12T02:52:34.242Z,24.90
2018-06-12T02:55:03.475Z,24.43
2018-06-12T02:57:32.692Z,26.13
2018-06-12T03:00:01.851Z,25.33
2018-06-12T03:02:31.595Z,25.13
2018-06-12T03:05:00.776Z,24.53
2018-06-12T03:07:29.974Z,26.33
2018-06-12T03:09:59.175Z,23.90
2018-06-12T03:12:28.371Z,22.33
2018-06-12T03:14:57.555Z,22.20
2018-06-12T03:17:26.754Z,22.40
2018-06-12T03:19:55.967Z,19.90
2018-06-12T03:22:25.306Z,20.50
2018-06-12T03:24:54.513Z,18.97
2018-06-12T03:27:23.692Z,19.27
2018-06-12T03:29:52.883Z,18.23
2018-06-12T03:32:23.094Z,18.13
2018-06-12T03:34:52.606Z,17.37
2018-06-12T03:37:21.831Z,18.30
2018-06-12T03:39:51.286Z,17.97
2018-06-12T03:42:20.498Z,18.50
2018-06-12T03:44:49.803Z,20.03
2018-06-12T03:47:18.998Z,19.53
2018-06-12T03:49:48.278Z,19.33
2018-06-12T03:52:22.935Z,17.73
2018-06-12T03:54:52.283Z,19.00
2018-06-12T03:57:21.504Z,18.20
2018-06-12T03:59:51.212Z,18.47
2018-06-12T04:02:20.430Z,19.47
2018-06-12T04:04:49.618Z,18.53
2018-06-12T04:07:18.835Z,17.63
2018-06-12T04:09:48.015Z,18.40
2018-06-12T04:12:17.227Z,17.80
2018-06-12T04:14:46.446Z,16.47
2018-06-12T04:17:15.960Z,17.43
2018-06-12T04:19:45.131Z,17.70
2018-06-12T04:22:14.442Z,17.87
2018-06-12T04:24:43.742Z,18.03
2018-06-12T04:27:12.915Z,19.03
2018-06-12T04:29:42.276Z,17.57
2018-06-12T04:32:11.938Z,18.00
2018-06-12T04:34:42.390Z,18.50
2018-06-12T04:37:11.569Z,17.97
2018-06-12T04:39:40.771Z,17.73
2018-06-12T04:42:09.948Z,18.20
2018-06-12T04:44:39.238Z,18.07
2018-06-12T04:47:08.424Z,19.93
2018-06-12T04:49:37.635Z,18.53
2018-06-12T04:52:06.958Z,18.00
2018-06-12T04:54:36.547Z,17.17
2018-06-12T04:57:05.691Z,18.33
2018-06-12T04:59:34.993Z,17.03
2018-06-12T05:02:04.190Z,17.20
2018-06-12T05:04:33.394Z,17.73
2018-06-12T05:07:02.576Z,17.40
2018-06-12T05:09:31.783Z,16.57
2018-06-12T05:12:01.311Z,17.23
2018-06-12T05:14:30.542Z,17.40
2018-06-12T05:16:59.712Z,17.37
2018-06-12T05:19:28.938Z,16.90
2018-06-12T05:21:58.446Z,17.40
2018-06-12T05:24:27.658Z,16.93
2018-06-12T05:26:56.830Z,16.23
2018-06-12T05:29:26.535Z,18.07
2018-06-12T05:31:55.935Z,17.77
2018-06-12T05:34:25.267Z,15.33
2018-06-12T05:36:54.446Z,17.07
2018-06-12T05:39:23.669Z,16.67
2018-06-12T05:41:53.306Z,16.07
2018-06-12T05:44:22.508Z,15.13
2018-06-12T05:46:51.879Z,18.43
2018-06-12T05:49:21.021Z,16.30
2018-06-12T05:51:50.219Z,17.97
2018-06-12T05:54:19.408Z,16.27
2018-06-12T05:56:48.618Z,16.90
2018-06-12T05:59:17.984Z,15.40
2018-06-12T06:01:47.166Z,15.80
2018-06-12T06:04:16.338Z,15.70
2018-06-12T06:06:45.552Z,15.43
2018-06-12T06:09:14.748Z,16.43
2018-06-12T06:11:44.403Z,15.07
2018-06-12T06:14:13.846Z,16.00
2018-06-12T06:16:43.058Z,16.50
2018-06-12T06:19:12.238Z,15.67
2018-06-12T06:21:41.444Z,15.13
2018-06-12T06:24:10.636Z,15.40
2018-06-12T06:26:39.845Z,15.97
2018-06-12T06:29:09.455Z,14.70
2018-06-12T06:31:39.346Z,15.03
2018-06-12T06:34:08.550Z,16.03
2018-06-12T06:36:38.083Z,16.93
2018-06-12T06:39:08.062Z,15.07
2018-06-12T06:41:37.274Z,15.63
2018-06-12T06:44:06.458Z,16.37
2018-06-12T06:46:35.650Z,16.57
2018-06-12T06:49:05.050Z,15.33
2018-06-12T06:51:34.262Z,14.87
2018-06-12T06:54:03.529Z,14.83
2018-06-12T06:56:32.971Z,14.43
2018-06-12T06:59:02.170Z,14.97
2018-06-12T07:01:31.391Z,13.60
2018-06-12T07:04:00.575Z,14.37
2018-06-12T07:06:29.787Z,14.20
2018-06-12T07:08:59.017Z,13.20
2018-06-12T07:11:28.419Z,13.73
2018-06-12T07:13:57.590Z,13.63
2018-06-12T07:16:27.279Z,13.13
2018-06-12T07:18:56.468Z,13.37
2018-06-12T07:21:25.678Z,13.63
2018-06-12T07:23:54.867Z,13.30
2018-06-12T07:26:24.060Z,14.10
2018-06-12T07:28:53.261Z,13.37
2018-06-12T07:31:22.516Z,13.30
2018-06-12T07:33:51.942Z,12.77
2018-06-12T07:36:21.369Z,13.63
2018-06-12T07:38:50.907Z,13.43
2018-06-12T07:41:20.080Z,13.47
2018-06-12T07:43:49.302Z,13.73
2018-06-12T07:46:18.495Z,13.33
2018-06-12T07:48:47.695Z,14.20
2018-06-12T07:51:16.879Z,12.77
2018-06-12T07:53:46.071Z,14.80
2018-06-12T07:56:15.242Z,14.90
2018-06-12T07:58:44.439Z,14.33
2018-06-12T08:01:13.643Z,13.57
2018-06-12T08:03:42.859Z,14.00
2018-06-12T08:06:12.020Z,14.30
2018-06-12T08:08:41.443Z,14.03
2018-06-12T08:11:10.623Z,14.67
2018-06-12T08:13:39.844Z,13.67
2018-06-12T08:16:09.026Z,15.77
2018-06-12T08:18:38.427Z,15.13
2018-06-12T08:21:07.658Z,15.43
2018-06-12T08:23:36.882Z,14.83
2018-06-12T08:26:06.055Z,15.43
2018-06-12T08:28:35.274Z,14.90
2018-06-12T08:31:04.464Z,14.73
2018-06-12T08:33:33.670Z,15.87
2018-06-12T08:36:03.030Z,15.33
2018-06-12T08:38:32.234Z,14.47
2018-06-12T08:41:01.416Z,14.93
2018-06-12T08:43:30.638Z,15.87
2018-06-12T08:46:00.008Z,15.80
2018-06-12T08:48:29.205Z,14.73
2018-06-12T08:50:58.415Z,15.53
2018-06-12T08:53:27.586Z,15.30
2018-06-12T08:55:56.778Z,15.10
2018-06-12T08:58:26.032Z,15.07
2018-06-12T09:00:55.230Z,14.73
2018-06-12T09:03:24.415Z,13.57
2018-06-12T09:05:53.615Z,16.43
2018-06-12T09:08:22.831Z,15.73
2018-06-12T09:10:52.050Z,15.80
2018-06-12T09:13:21.338Z,16.73
2018-06-12T09:15:50.535Z,16.53
2018-06-12T09:18:19.722Z,15.47
2018-06-12T09:20:49.036Z,14.80
2018-06-12T09:23:18.207Z,15.57
2018-06-12T09:25:47.855Z,14.07
2018-06-12T09:28:17.031Z,14.77
2018-06-12T09:30:46.243Z,16.57
2018-06-12T09:33:15.454Z,16.83
2018-06-12T09:35:44.690Z,15.50
2018-06-12T09:38:14.341Z,14.83
2018-06-12T09:40:43.575Z,15.33
2018-06-12T09:43:12.795Z,16.37
2018-06-12T09:45:41.982Z,15.70
2018-06-12T09:48:11.166Z,14.67
2018-06-12T09:50:40.387Z,16.10
2018-06-12T09:53:09.563Z,15.90
2018-06-12T09:55:38.747Z,15.90
2018-06-12T09:58:07.966Z,14.93
2018-06-12T10:00:42.387Z,15.50
2018-06-12T10:03:11.636Z,15.53
2018-06-12T10:05:40.867Z,15.47
2018-06-12T10:08:10.128Z,15.93
2018-06-12T10:10:39.313Z,15.57
2018-06-12T10:13:08.635Z,15.90
2018-06-12T10:15:38.137Z,16.00
2018-06-12T10:18:07.350Z,15.47
2018-06-12T10:20:37.047Z,14.63
2018-06-12T10:23:06.243Z,14.57
2018-06-12T10:25:35.423Z,13.73
2018-06-12T10:28:04.675Z,15.03
2018-06-12T10:30:34.085Z,13.77
2018-06-12T10:33:03.311Z,15.70
2018-06-12T10:35:32.651Z,15.23
2018-06-12T10:38:01.875Z,14.57
2018-06-12T10:40:31.046Z,13.13
2018-06-12T10:43:00.241Z,13.43
2018-06-12T10:45:29.439Z,12.87
2018-06-12T10:47:58.642Z,11.97
2018-06-12T10:50:28.031Z,12.80
2018-06-12T10:52:57.236Z,10.93
2018-06-12T10:55:26.658Z,11.90
2018-06-12T10:57:56.078Z,12.57
2018-06-12T11:00:25.259Z,12.10
2018-06-12T11:02:54.495Z,12.30
2018-06-12T11:05:23.687Z,11.93
2018-06-12T11:07:53.168Z,12.50
2018-06-12T11:10:22.399Z,12.30
2018-06-12T11:12:51.618Z,13.20
2018-06-12T11:15:21.164Z,13.43
2018-06-12T11:17:50.590Z,11.80
2018-06-12T11:20:19.766Z,12.87
2018-06-12T11:22:48.966Z,12.40
2018-06-12T11:25:18.155Z,12.90
2018-06-12T11:27:48.022Z,12.10
2018-06-12T11:30:17.206Z,11.87
2018-06-12T11:32:46.439Z,11.47
2018-06-12T11:35:15.694Z,11.80
2018-06-12T11:37:44.870Z,10.07
2018-06-12T11:40:14.161Z,10.17
2018-06-12T11:42:43.403Z,10.37
2018-06-12T11:45:12.583Z,9.70
2018-06-12T11:47:42.133Z,9.27
2018-06-12T11:50:11.338Z,9.50
2018-06-12T11:52:40.519Z,8.50
2018-06-12T11:55:09.709Z,8.43
2018-06-12T11:57:38.887Z,7.27
2018-06-12T12:00:08.190Z,7.40
2018-06-12T12:02:37.371Z,6.63
2018-06-12T12:05:07.053Z,6.00
2018-06-12T12:07:36.231Z,6.20
2018-06-12T12:10:05.459Z,5.60
2018-06-12T12:12:34.771Z,5.70
2018-06-12T12:15:04.155Z,5.80
2018-06-12T12:17:33.307Z,5.90
2018-06-12T12:20:02.707Z,5.40
2018-06-12T12:22:31.900Z,4.73
2018-06-12T12:25:01.235Z,4.53
2018-06-12T12:27:30.404Z,4.33
2018-06-12T12:29:59.683Z,4.27
2018-06-12T12:32:28.966Z,4.40
2018-06-12T12:34:58.167Z,4.33
2018-06-12T12:37:27.359Z,4.27
2018-06-12T12:39:56.568Z,4.37
2018-06-12T12:42:26.248Z,4.00
2018-06-12T12:44:55.439Z,4.30
2018-06-12T12:47:24.607Z,4.20
2018-06-12T12:49:54.627Z,4.30
2018-06-12T12:52:23.782Z,4.10
2018-06-12T12:54:52.982Z,4.03
2018-06-12T12:57:22.167Z,4.17
2018-06-12T12:59:51.416Z,3.60
2018-06-12T13:02:20.768Z,4.03
2018-06-12T13:04:50.139Z,4.03
2018-06-12T13:07:19.582Z,4.30
2018-06-12T13:09:48.750Z,4.10
2018-06-12T13:12:18.247Z,4.23
2018-06-12T13:14:47.458Z,4.07
2018-06-12T13:17:16.670Z,3.93
2018-06-12T13:19:45.810Z,4.27
2018-06-12T13:22:15.009Z,4.43
2018-06-12T13:24:44.204Z,4.40
2018-06-12T13:27:13.913Z,4.60
2018-06-12T13:29:43.083Z,4.60
2018-06-12T13:32:12.282Z,4.93
2018-06-12T13:34:41.442Z,5.00
2018-06-12T13:37:10.633Z,4.63
2018-06-12T13:39:39.807Z,5.00
2018-06-12T13:42:08.999Z,5.30
2018-06-12T13:44:38.230Z,6.07
2018-06-12T13:47:07.434Z,6.83
2018-06-12T13:49:36.615Z,6.20
2018-06-12T13:52:05.827Z,6.30
2018-06-12T13:54:34.978Z,5.97
2018-06-12T13:57:04.703Z,6.43
2018-06-12T13:59:34.379Z,5.70
2018-06-12T14:02:03.608Z,6.07
2018-06-12T14:04:32.778Z,7.20
2018-06-12T14:07:01.993Z,6.50
2018-06-12T14:09:31.239Z,8.13
2018-06-12T14:12:01.174Z,9.30
2018-06-12T14:14:30.339Z,9.27
2018-06-12T14:16:59.748Z,9.23
2018-06-12T14:19:28.920Z,9.33
2018-06-12T14:21:58.370Z,9.17
2018-06-12T14:24:27.511Z,9.37
2018-06-12T14:26:56.695Z,8.57
2018-06-12T14:29:26.296Z,9.20
2018-06-12T14:31:55.631Z,9.43
2018-06-12T14:34:24.814Z,9.20
2018-06-12T14:36:54.791Z,8.63
2018-06-12T14:39:24.003Z,9.40
2018-06-12T14:41:53.827Z,9.17
2018-06-12T14:44:23.155Z,8.87
2018-06-12T14:46:52.338Z,9.53
2018-06-12T14:49:21.557Z,7.93
2018-06-12T14:51:50.762Z,8.10
2018-06-12T14:54:19.954Z,8.20
2018-06-12T14:56:49.266Z,8.33
2018-06-12T14:59:18.799Z,7.70
2018-06-12T15:01:47.972Z,7.37
2018-06-12T15:04:17.165Z,7.13
2018-06-12T15:06:46.338Z,6.57
2018-06-12T15:09:15.822Z,7.10
2018-06-12T15:11:45.021Z,9.13
2018-06-12T15:14:14.210Z,9.10
2018-06-12T15:16:43.511Z,6.40
2018-06-12T15:19:12.707Z,5.40
2018-06-12T15:21:41.890Z,5.90
2018-06-12T15:24:11.634Z,5.90
2018-06-12T15:26:40.851Z,5.67
2018-06-12T15:29:10.032Z,5.77
2018-06-12T15:31:39.230Z,5.57
2018-06-12T15:34:08.434Z,5.90
2018-06-12T15:36:37.726Z,5.57
2018-06-12T15:39:08.684Z,5.83
2018-06-12T15:41:38.698Z,5.10
2018-06-12T15:44:07.902Z,5.70
2018-06-12T15:46:37.381Z,6.07
2018-06-12T15:49:06.609Z,5.47
2018-06-12T15:51:35.799Z,6.07
2018-06-12T15:54:05.532Z,6.43
2018-06-12T15:56:34.704Z,7.33
2018-06-12T15:59:03.889Z,8.83
2018-06-12T16:01:33.574Z,8.70
2018-06-12T16:04:03.330Z,8.83
2018-06-12T16:06:32.847Z,11.07
2018-06-12T16:09:02.050Z,12.37
2018-06-12T16:11:31.280Z,13.23
2018-06-12T16:14:00.483Z,13.60
2018-06-12T16:16:29.698Z,13.10
2018-06-12T16:18:58.883Z,12.67
2018-06-12T16:21:28.222Z,13.57
2018-06-12T16:23:58.245Z,13.00
2018-06-12T16:26:27.885Z,13.07
2018-06-12T16:28:57.047Z,13.33
2018-06-12T16:31:26.778Z,12.37
2018-06-12T16:33:56.405Z,12.67
2018-06-12T16:36:26.284Z,14.13
2018-06-12T16:38:55.458Z,66.13
2018-06-12T16:41:24.735Z,13.30
2018-06-12T16:43:53.863Z,12.33
2018-06-12T16:46:23.478Z,12.27
2018-06-12T16:48:53.338Z,11.57
2018-06-12T16:51:23.314Z,11.87
2018-06-12T16:53:52.515Z,11.23
2018-06-12T16:56:21.768Z,12.03
2018-06-12T16:58:50.980Z,11.00
2018-06-12T17:01:20.210Z,10.57
2018-06-12T17:03:49.415Z,10.03
2018-06-12T17:06:18.983Z,9.63
2018-06-12T17:08:48.186Z,10.37
2018-06-12T17:11:17.514Z,9.77
2018-06-12T17:13:46.743Z,9.43
2018-06-12T17:16:15.930Z,8.60
2018-06-12T17:18:45.750Z,9.23
2018-06-12T17:21:15.406Z,9.63
2018-06-12T17:23:45.106Z,9.40
2018-06-12T17:26:14.318Z,10.03
2018-06-12T17:28:43.555Z,10.23
2018-06-12T17:31:12.754Z,10.80
2018-06-12T17:33:41.914Z,10.93
2018-06-12T17:36:11.147Z,12.53
2018-06-12T17:38:40.339Z,11.63
2018-06-12T17:41:09.567Z,11.43
2018-06-12T17:43:39.294Z,12.00
2018-06-12T17:46:08.483Z,12.17
2018-06-12T17:48:37.690Z,14.13
2018-06-12T17:51:06.932Z,15.00
2018-06-12T17:53:36.107Z,30.43
2018-06-12T17:56:06.271Z,54.70
2018-06-12T17:58:35.475Z,18.57
2018-06-12T18:01:04.682Z,20.03
2018-06-12T18:03:33.890Z,20.57
2018-06-12T18:06:03.992Z,21.63
2018-06-12T18:08:33.504Z,22.23
2018-06-12T18:11:02.703Z,26.57
2018-06-12T18:13:32.081Z,27.33
2018-06-12T18:16:01.536Z,27.73
2018-06-12T18:18:31.436Z,28.90
2018-06-12T18:21:00.647Z,28.93
2018-06-12T18:23:29.863Z,28.90
2018-06-12T18:25:59.358Z,30.73
2018-06-12T18:28:28.591Z,29.47
2018-06-12T18:30:58.142Z,29.17
2018-06-12T18:33:28.003Z,29.57
2018-06-12T18:35:57.172Z,28.23
2018-06-12T18:38:27.087Z,27.10
2018-06-12T18:40:56.387Z,28.50
2018-06-12T18:43:25.598Z,28.60
2018-06-12T18:45:54.786Z,27.03
2018-06-12T18:48:24.620Z,28.00
2018-06-12T18:50:54.217Z,28.40
2018-06-12T18:53:23.711Z,28.47
2018-06-12T18:55:52.912Z,26.73
2018-06-12T18:58:22.118Z,26.87
2018-06-12T19:00:51.592Z,26.10
2018-06-12T19:03:21.216Z,25.10
2018-06-12T19:05:50.715Z,25.37
2018-06-12T19:08:20.551Z,24.67
2018-06-12T19:10:49.741Z,25.73
2018-06-12T19:13:19.391Z,24.90
2018-06-12T19:15:49.396Z,24.77
2018-06-12T19:18:18.935Z,24.50
2018-06-12T19:20:48.158Z,56.83
2018-06-12T19:23:17.691Z,44.50
2018-06-12T19:25:48.159Z,24.13
2018-06-12T19:28:17.703Z,24.73
2018-06-12T19:30:47.500Z,22.03
2018-06-12T19:33:17.020Z,22.47
2018-06-12T19:35:46.254Z,22.00
2018-06-12T19:38:15.479Z,20.10
2018-06-12T19:40:45.147Z,19.60
2018-06-12T19:43:14.343Z,18.90
2018-06-12T19:45:44.342Z,17.87
2018-06-12T19:48:13.748Z,17.37
2018-06-12T19:50:42.970Z,16.80
2018-06-12T19:53:12.604Z,16.50
2018-06-12T19:55:41.795Z,17.73
2018-06-12T19:58:12.261Z,17.70
2018-06-12T20:00:41.507Z,16.83
2018-06-12T20:03:10.871Z,16.37
2018-06-12T20:05:40.123Z,16.07
2018-06-12T20:08:09.602Z,15.60
2018-06-12T20:10:39.326Z,13.73
2018-06-12T20:13:09.385Z,14.70
2018-06-12T20:15:39.659Z,14.07
2018-06-12T20:18:09.559Z,13.83
2018-06-12T20:20:38.912Z,63.03
2018-06-12T20:23:08.845Z,24.33
2018-06-12T20:25:38.060Z,14.07
2018-06-12T20:28:07.247Z,12.90
2018-06-12T20:30:36.506Z,13.00
2018-06-12T20:33:06.616Z,12.90
2018-06-12T20:35:35.850Z,12.63
2018-06-12T20:38:05.600Z,12.57
2018-06-12T20:40:35.231Z,13.30
2018-06-12T20:43:04.508Z,12.93
2018-06-12T20:45:34.879Z,13.37
2018-06-12T20:48:04.122Z,15.03
2018-06-12T20:50:33.907Z,14.93
2018-06-12T20:53:03.082Z,14.03
2018-06-12T20:55:32.304Z,14.83
2018-06-12T20:58:01.776Z,14.07
2018-06-12T21:00:30.982Z,15.23
2018-06-12T21:03:00.477Z,14.90
2018-06-12T21:05:30.498Z,15.23
2018-06-12T21:08:00.424Z,15.00
2018-06-12T21:10:29.627Z,36.97
2018-06-12T21:12:59.080Z,14.80
2018-06-12T21:15:28.299Z,19.50
2018-06-12T21:17:57.493Z,14.87
2018-06-12T21:20:27.094Z,17.00
2018-06-12T21:22:57.071Z,16.97
2018-06-12T21:25:26.310Z,17.37
2018-06-12T21:27:55.503Z,17.27
2018-06-12T21:30:24.736Z,17.03
2018-06-12T21:32:54.545Z,17.83
2018-06-12T21:35:23.727Z,17.87
2018-06-12T21:37:53.290Z,17.47
2018-06-12T21:40:22.870Z,18.37
2018-06-12T21:42:52.360Z,19.00
2018-06-12T21:45:21.973Z,19.30
2018-06-12T21:47:51.163Z,18.33
2018-06-12T21:50:20.649Z,20.87
2018-06-12T21:52:50.706Z,21.23
2018-06-12T21:55:19.871Z,21.83
2018-06-12T21:57:49.082Z,21.70
2018-06-12T22:00:29.538Z,21.10
2018-06-12T22:02:59.019Z,21.10
2018-06-12T22:05:28.578Z,21.83
2018-06-12T22:07:58.321Z,21.90
2018-06-12T22:10:27.763Z,22.57
2018-06-12T22:12:57.394Z,21.30
2018-06-12T22:15:27.410Z,21.87
2018-06-12T22:17:56.846Z,21.90
2018-06-12T22:20:26.035Z,22.33
2018-06-12T22:22:55.463Z,20.83
2018-06-12T22:25:25.316Z,21.37
2018-06-12T22:27:54.529Z,22.30
2018-06-12T22:30:23.839Z,21.33
2018-06-12T22:32:53.075Z,21.30
2018-06-12T22:35:22.256Z,20.80
2018-06-12T22:37:51.486Z,21.23
2018-06-12T22:40:20.775Z,21.50
2018-06-12T22:42:49.991Z,21.53
2018-06-12T22:45:19.859Z,21.23
2018-06-12T22:47:49.468Z,20.33
2018-06-12T22:50:18.930Z,21.60
2018-06-12T22:52:48.744Z,21.87
2018-06-12T22:55:17.966Z,23.47
2018-06-12T22:57:47.551Z,23.30
2018-06-12T23:00:20.433Z,23.07
2018-06-12T23:02:49.878Z,22.57
2018-06-12T23:05:19.095Z,22.67
2018-06-12T23:07:48.298Z,22.10
2018-06-12T23:10:17.532Z,22.43
2018-06-12T23:12:47.063Z,22.93
2018-06-12T23:15:16.951Z,21.67
2018-06-12T23:17:46.148Z,21.43
2018-06-12T23:20:26.594Z,21.90
2018-06-12T23:22:56.159Z,21.80
2018-06-12T23:25:25.359Z,21.83
2018-06-12T23:27:54.682Z,22.43
2018-06-12T23:30:24.195Z,21.03
2018-06-12T23:32:53.691Z,20.60
2018-06-12T23:35:23.407Z,23.87
2018-06-12T23:37:52.651Z,22.17
2018-06-12T23:40:21.932Z,22.80
2018-06-12T23:42:51.411Z,25.13
2018-06-12T23:45:21.073Z,23.33
2018-06-12T23:47:50.439Z,21.67
2018-06-12T23:50:20.318Z,22.77
2018-06-12T23:52:49.519Z,23.07
2018-06-12T23:55:18.713Z,23.50
2018-06-12T23:57:47.944Z,23.03
